Terminal Aerodrome Forecast
Issued by NWS Missoula, MT

Home | Current Version | Previous Version | Text Only | Print | Product List | Glossary On
Versions: 1 2 3 4 5 6 7 8 9 10 11 12 13 14 15 16 17 18 19 20
000
FTUS45 KMSO 311127
TAFGPI
TAF
KGPI 311127Z 3112/0112 35003KT 1/2SM FZFG VV003
     FM311400 02005KT 1SM BR VCSH BKN003 OVC030
     FM311800 02008KT P6SM SCT003 OVC030=

USA.gov is the U.S. government's official web portal to all federal, state and local government web resources and services.